sensor_id;sensor_type;location;lat;lon;timestamp;temperature;humidity
20418;DHT22;10368;51.436;6.774;2022-12-11T00:01:19;0.80;99.90
20418;DHT22;10368;51.436;6.774;2022-12-11T00:03:47;0.60;99.90
20418;DHT22;10368;51.436;6.774;2022-12-11T00:06:17;0.60;99.90
20418;DHT22;10368;51.436;6.774;2022-12-11T00:08:45;0.60;99.90
20418;DHT22;10368;51.436;6.774;2022-12-11T00:11:14;0.60;99.90
20418;DHT22;10368;51.436;6.774;2022-12-11T00:13:42;0.60;99.90
20418;DHT22;10368;51.436;6.774;2022-12-11T00:16:09;0.60;99.90
20418;DHT22;10368;51.436;6.774;2022-12-11T00:18:36;0.60;99.90
20418;DHT22;10368;51.436;6.774;2022-12-11T00:21:05;0.50;99.90
20418;DHT22;10368;51.436;6.774;2022-12-11T00:23:34;0.50;99.90
20418;DHT22;10368;51.436;6.774;2022-12-11T00:26:08;0.50;99.90
20418;DHT22;10368;51.436;6.774;2022-12-11T00:28:35;0.50;99.90
20418;DHT22;10368;51.436;6.774;2022-12-11T00:31:07;0.50;99.90
20418;DHT22;10368;51.436;6.774;2022-12-11T00:33:34;0.50;99.90
20418;DHT22;10368;51.436;6.774;2022-12-11T00:36:01;0.50;99.90
20418;DHT22;10368;51.436;6.774;2022-12-11T00:38:28;0.50;99.90
20418;DHT22;10368;51.436;6.774;2022-12-11T00:40:58;0.50;99.90
20418;DHT22;10368;51.436;6.774;2022-12-11T00:43:25;0.50;99.90
20418;DHT22;10368;51.436;6.774;2022-12-11T00:45:52;0.50;99.90
20418;DHT22;10368;51.436;6.774;2022-12-11T00:48:22;0.50;99.90
20418;DHT22;10368;51.436;6.774;2022-12-11T00:50:51;0.50;99.90
20418;DHT22;10368;51.436;6.774;2022-12-11T00:53:18;0.50;99.90
20418;DHT22;10368;51.436;6.774;2022-12-11T00:55:45;0.40;99.90
20418;DHT22;10368;51.436;6.774;2022-12-11T00:58:12;0.40;99.90
20418;DHT22;10368;51.436;6.774;2022-12-11T01:00:40;0.50;99.90
20418;DHT22;10368;51.436;6.774;2022-12-11T01:03:07;0.50;99.90
20418;DHT22;10368;51.436;6.774;2022-12-11T01:05:34;0.50;99.90
20418;DHT22;10368;51.436;6.774;2022-12-11T01:08:01;0.60;99.90
20418;DHT22;10368;51.436;6.774;2022-12-11T01:10:29;0.60;99.90
20418;DHT22;10368;51.436;6.774;2022-12-11T01:13:04;0.50;99.90
20418;DHT22;10368;51.436;6.774;2022-12-11T01:15:40;0.60;99.90
20418;DHT22;10368;51.436;6.774;2022-12-11T01:18:09;0.60;99.90
20418;DHT22;10368;51.436;6.774;2022-12-11T01:20:38;0.50;99.90
20418;DHT22;10368;51.436;6.774;2022-12-11T01:23:05;0.50;99.90
20418;DHT22;10368;51.436;6.774;2022-12-11T01:25:34;0.50;99.90
20418;DHT22;10368;51.436;6.774;2022-12-11T01:28:04;0.50;99.90
20418;DHT22;10368;51.436;6.774;2022-12-11T01:30:31;0.50;99.90
20418;DHT22;10368;51.436;6.774;2022-12-11T01:32:58;0.50;99.90
20418;DHT22;10368;51.436;6.774;2022-12-11T01:35:26;0.50;99.90
20418;DHT22;10368;51.436;6.774;2022-12-11T01:37:53;0.50;99.90
20418;DHT22;10368;51.436;6.774;2022-12-11T01:40:21;0.50;99.90
20418;DHT22;10368;51.436;6.774;2022-12-11T01:42:48;0.50;99.90
20418;DHT22;10368;51.436;6.774;2022-12-11T01:48:03;0.50;99.90
20418;DHT22;10368;51.436;6.774;2022-12-11T01:50:33;0.50;99.90
20418;DHT22;10368;51.436;6.774;2022-12-11T01:53:07;0.40;99.90
20418;DHT22;10368;51.436;6.774;2022-12-11T01:55:38;0.50;99.90
20418;DHT22;10368;51.436;6.774;2022-12-11T01:58:07;0.60;99.90
20418;DHT22;10368;51.436;6.774;2022-12-11T02:00:35;0.60;99.90
20418;DHT22;10368;51.436;6.774;2022-12-11T02:03:02;0.60;99.90
20418;DHT22;10368;51.436;6.774;2022-12-11T02:05:31;0.50;99.90
20418;DHT22;10368;51.436;6.774;2022-12-11T02:07:59;0.60;99.90
20418;DHT22;10368;51.436;6.774;2022-12-11T02:13:50;0.70;99.90
20418;DHT22;10368;51.436;6.774;2022-12-11T02:22:10;0.80;99.90
20418;DHT22;10368;51.436;6.774;2022-12-11T02:30:41;0.90;99.90
20418;DHT22;10368;51.436;6.774;2022-12-11T02:33:11;0.80;99.90
20418;DHT22;10368;51.436;6.774;2022-12-11T02:35:41;0.70;99.90
20418;DHT22;10368;51.436;6.774;2022-12-11T02:38:19;0.80;99.90
20418;DHT22;10368;51.436;6.774;2022-12-11T02:40:51;0.80;99.90
20418;DHT22;10368;51.436;6.774;2022-12-11T02:43:21;0.90;99.90
20418;DHT22;10368;51.436;6.774;2022-12-11T02:45:50;0.90;99.90
20418;DHT22;10368;51.436;6.774;2022-12-11T02:48:25;0.90;99.90
20418;DHT22;10368;51.436;6.774;2022-12-11T02:50:58;0.90;99.90
20418;DHT22;10368;51.436;6.774;2022-12-11T02:53:29;0.90;99.90
20418;DHT22;10368;51.436;6.774;2022-12-11T02:56:10;0.90;99.90
20418;DHT22;10368;51.436;6.774;2022-12-11T02:58:52;0.90;99.90
20418;DHT22;10368;51.436;6.774;2022-12-11T03:01:27;0.90;99.90
20418;DHT22;10368;51.436;6.774;2022-12-11T03:03:55;0.90;99.90
20418;DHT22;10368;51.436;6.774;2022-12-11T03:06:32;0.90;99.90
20418;DHT22;10368;51.436;6.774;2022-12-11T03:09:04;0.90;99.90
20418;DHT22;10368;51.436;6.774;2022-12-11T03:11:31;0.90;99.90
20418;DHT22;10368;51.436;6.774;2022-12-11T03:13:59;0.90;99.90
20418;DHT22;10368;51.436;6.774;2022-12-11T03:16:44;1.00;99.90
20418;DHT22;10368;51.436;6.774;2022-12-11T03:19:23;1.00;99.90
20418;DHT22;10368;51.436;6.774;2022-12-11T03:22:07;1.00;99.90
20418;DHT22;10368;51.436;6.774;2022-12-11T03:25:33;1.00;99.90
20418;DHT22;10368;51.436;6.774;2022-12-11T03:28:04;1.00;99.90
20418;DHT22;10368;51.436;6.774;2022-12-11T03:30:35;1.00;99.90
20418;DHT22;10368;51.436;6.774;2022-12-11T03:33:12;1.00;99.90
20418;DHT22;10368;51.436;6.774;2022-12-11T03:35:43;1.00;99.90
20418;DHT22;10368;51.436;6.774;2022-12-11T03:38:20;1.00;99.90
20418;DHT22;10368;51.436;6.774;2022-12-11T03:40:50;1.00;99.90
20418;DHT22;10368;51.436;6.774;2022-12-11T03:43:20;0.90;99.90
20418;DHT22;10368;51.436;6.774;2022-12-11T03:45:48;1.00;99.90
20418;DHT22;10368;51.436;6.774;2022-12-11T03:48:17;1.00;99.90
20418;DHT22;10368;51.436;6.774;2022-12-11T03:50:45;1.00;99.90
20418;DHT22;10368;51.436;6.774;2022-12-11T03:53:13;1.00;99.90
20418;DHT22;10368;51.436;6.774;2022-12-11T03:55:42;1.10;99.90
20418;DHT22;10368;51.436;6.774;2022-12-11T03:58:09;1.00;99.90
20418;DHT22;10368;51.436;6.774;2022-12-11T04:00:36;1.00;99.90
20418;DHT22;10368;51.436;6.774;2022-12-11T04:03:03;1.00;99.90
20418;DHT22;10368;51.436;6.774;2022-12-11T04:05:43;1.10;99.90
20418;DHT22;10368;51.436;6.774;2022-12-11T04:08:10;1.10;99.90
20418;DHT22;10368;51.436;6.774;2022-12-11T04:10:38;1.10;99.90
20418;DHT22;10368;51.436;6.774;2022-12-11T04:13:05;1.20;99.90
20418;DHT22;10368;51.436;6.774;2022-12-11T04:15:33;1.10;99.90
20418;DHT22;10368;51.436;6.774;2022-12-11T04:18:00;1.10;99.90
20418;DHT22;10368;51.436;6.774;2022-12-11T04:20:45;1.10;99.90
20418;DHT22;10368;51.436;6.774;2022-12-11T04:23:30;1.10;99.90
20418;DHT22;10368;51.436;6.774;2022-12-11T04:26:18;1.20;99.90
20418;DHT22;10368;51.436;6.774;2022-12-11T04:28:48;1.20;99.90
20418;DHT22;10368;51.436;6.774;2022-12-11T04:31:19;1.20;99.90
20418;DHT22;10368;51.436;6.774;2022-12-11T04:33:47;1.20;99.90
20418;DHT22;10368;51.436;6.774;2022-12-11T04:36:14;1.30;99.90
20418;DHT22;10368;51.436;6.774;2022-12-11T04:38:41;1.20;99.90
20418;DHT22;10368;51.436;6.774;2022-12-11T04:41:12;1.20;99.90
20418;DHT22;10368;51.436;6.774;2022-12-11T04:43:40;1.10;99.90
20418;DHT22;10368;51.436;6.774;2022-12-11T04:46:09;1.20;99.90
20418;DHT22;10368;51.436;6.774;2022-12-11T04:48:38;1.30;99.90
20418;DHT22;10368;51.436;6.774;2022-12-11T04:51:06;1.30;99.90
20418;DHT22;10368;51.436;6.774;2022-12-11T04:53:33;1.30;99.90
20418;DHT22;10368;51.436;6.774;2022-12-11T04:56:00;1.20;99.90
20418;DHT22;10368;51.436;6.774;2022-12-11T04:58:30;1.30;99.90
20418;DHT22;10368;51.436;6.774;2022-12-11T05:00:57;1.20;99.90
20418;DHT22;10368;51.436;6.774;2022-12-11T05:03:23;1.20;99.90
20418;DHT22;10368;51.436;6.774;2022-12-11T05:05:52;1.20;99.90
20418;DHT22;10368;51.436;6.774;2022-12-11T05:08:20;1.20;99.90
20418;DHT22;10368;51.436;6.774;2022-12-11T05:10:57;1.30;99.90
20418;DHT22;10368;51.436;6.774;2022-12-11T05:13:24;1.30;99.90
20418;DHT22;10368;51.436;6.774;2022-12-11T05:15:51;1.20;99.90
20418;DHT22;10368;51.436;6.774;2022-12-11T05:18:19;1.30;99.90
20418;DHT22;10368;51.436;6.774;2022-12-11T05:21:00;1.20;99.90
20418;DHT22;10368;51.436;6.774;2022-12-11T05:23:28;1.30;99.90
20418;DHT22;10368;51.436;6.774;2022-12-11T05:25:57;1.20;99.90
20418;DHT22;10368;51.436;6.774;2022-12-11T05:28:27;1.20;99.90
20418;DHT22;10368;51.436;6.774;2022-12-11T05:30:55;1.20;99.90
20418;DHT22;10368;51.436;6.774;2022-12-11T05:33:22;1.30;99.90
20418;DHT22;10368;51.436;6.774;2022-12-11T05:35:52;1.30;99.90
20418;DHT22;10368;51.436;6.774;2022-12-11T05:38:19;1.20;99.90
20418;DHT22;10368;51.436;6.774;2022-12-11T05:41:03;1.20;99.90
20418;DHT22;10368;51.436;6.774;2022-12-11T05:43:33;1.20;99.90
20418;DHT22;10368;51.436;6.774;2022-12-11T05:46:21;1.20;99.90
20418;DHT22;10368;51.436;6.774;2022-12-11T05:48:51;1.20;99.90
20418;DHT22;10368;51.436;6.774;2022-12-11T05:51:19;1.20;99.90
20418;DHT22;10368;51.436;6.774;2022-12-11T05:53:48;1.20;99.90
20418;DHT22;10368;51.436;6.774;2022-12-11T05:56:27;1.20;99.90
20418;DHT22;10368;51.436;6.774;2022-12-11T05:58:54;1.20;99.90
20418;DHT22;10368;51.436;6.774;2022-12-11T06:01:23;1.20;99.90
20418;DHT22;10368;51.436;6.774;2022-12-11T06:03:50;1.20;99.90
20418;DHT22;10368;51.436;6.774;2022-12-11T06:06:18;1.30;99.90
20418;DHT22;10368;51.436;6.774;2022-12-11T06:08:47;1.20;99.90
20418;DHT22;10368;51.436;6.774;2022-12-11T06:11:15;1.10;99.90
20418;DHT22;10368;51.436;6.774;2022-12-11T06:13:49;1.30;99.90
20418;DHT22;10368;51.436;6.774;2022-12-11T06:16:16;1.30;99.90
20418;DHT22;10368;51.436;6.774;2022-12-11T06:18:44;1.30;99.90
20418;DHT22;10368;51.436;6.774;2022-12-11T06:23:39;1.30;99.90
20418;DHT22;10368;51.436;6.774;2022-12-11T06:26:06;1.40;99.90
20418;DHT22;10368;51.436;6.774;2022-12-11T06:28:33;1.50;99.90
20418;DHT22;10368;51.436;6.774;2022-12-11T06:31:00;1.30;99.90
20418;DHT22;10368;51.436;6.774;2022-12-11T06:33:27;1.30;99.90
20418;DHT22;10368;51.436;6.774;2022-12-11T06:35:55;1.30;99.90
20418;DHT22;10368;51.436;6.774;2022-12-11T06:38:22;1.20;99.90
20418;DHT22;10368;51.436;6.774;2022-12-11T06:40:56;1.40;99.90
20418;DHT22;10368;51.436;6.774;2022-12-11T06:43:23;1.30;99.90
20418;DHT22;10368;51.436;6.774;2022-12-11T06:45:51;1.30;99.90
20418;DHT22;10368;51.436;6.774;2022-12-11T06:48:19;1.30;99.90
20418;DHT22;10368;51.436;6.774;2022-12-11T06:50:46;1.40;99.90
20418;DHT22;10368;51.436;6.774;2022-12-11T06:53:14;1.40;99.90
20418;DHT22;10368;51.436;6.774;2022-12-11T06:55:41;1.30;99.90
20418;DHT22;10368;51.436;6.774;2022-12-11T06:58:09;1.40;99.90
20418;DHT22;10368;51.436;6.774;2022-12-11T07:00:37;1.30;99.90
20418;DHT22;10368;51.436;6.774;2022-12-11T07:03:04;1.40;99.90
20418;DHT22;10368;51.436;6.774;2022-12-11T07:05:32;1.50;99.90
20418;DHT22;10368;51.436;6.774;2022-12-11T07:07:59;1.40;99.90
20418;DHT22;10368;51.436;6.774;2022-12-11T07:10:27;1.40;99.90
20418;DHT22;10368;51.436;6.774;2022-12-11T07:12:54;1.40;99.90
20418;DHT22;10368;51.436;6.774;2022-12-11T07:15:21;1.40;99.90
20418;DHT22;10368;51.436;6.774;2022-12-11T07:17:47;1.50;99.90
20418;DHT22;10368;51.436;6.774;2022-12-11T07:20:15;1.40;99.90
20418;DHT22;10368;51.436;6.774;2022-12-11T07:22:43;1.40;99.90
20418;DHT22;10368;51.436;6.774;2022-12-11T07:25:12;1.40;99.90
20418;DHT22;10368;51.436;6.774;2022-12-11T07:27:39;1.40;99.90
20418;DHT22;10368;51.436;6.774;2022-12-11T07:30:08;1.40;99.90
20418;DHT22;10368;51.436;6.774;2022-12-11T07:32:35;1.40;99.90
20418;DHT22;10368;51.436;6.774;2022-12-11T07:35:04;1.40;99.90
20418;DHT22;10368;51.436;6.774;2022-12-11T07:37:33;1.40;99.90
20418;DHT22;10368;51.436;6.774;2022-12-11T07:40:00;1.30;99.90
20418;DHT22;10368;51.436;6.774;2022-12-11T07:42:27;1.30;99.90
20418;DHT22;10368;51.436;6.774;2022-12-11T07:44:54;1.30;99.90
20418;DHT22;10368;51.436;6.774;2022-12-11T07:47:21;1.40;99.90
20418;DHT22;10368;51.436;6.774;2022-12-11T07:49:48;1.40;99.90
20418;DHT22;10368;51.436;6.774;2022-12-11T07:52:15;1.50;99.90
20418;DHT22;10368;51.436;6.774;2022-12-11T07:54:42;1.40;99.90
20418;DHT22;10368;51.436;6.774;2022-12-11T07:57:09;1.30;99.90
20418;DHT22;10368;51.436;6.774;2022-12-11T07:59:39;1.30;99.90
20418;DHT22;10368;51.436;6.774;2022-12-11T08:02:09;1.40;99.90
20418;DHT22;10368;51.436;6.774;2022-12-11T08:04:37;1.30;99.90
20418;DHT22;10368;51.436;6.774;2022-12-11T08:07:04;1.30;99.90
20418;DHT22;10368;51.436;6.774;2022-12-11T08:09:31;1.20;99.90
20418;DHT22;10368;51.436;6.774;2022-12-11T08:11:58;1.30;99.90
20418;DHT22;10368;51.436;6.774;2022-12-11T08:14:25;1.40;99.90
20418;DHT22;10368;51.436;6.774;2022-12-11T08:16:52;1.30;99.90
20418;DHT22;10368;51.436;6.774;2022-12-11T08:19:19;1.30;99.90
20418;DHT22;10368;51.436;6.774;2022-12-11T08:21:46;1.30;99.90
20418;DHT22;10368;51.436;6.774;2022-12-11T08:24:13;1.30;99.90
20418;DHT22;10368;51.436;6.774;2022-12-11T08:26:41;1.30;99.90
20418;DHT22;10368;51.436;6.774;2022-12-11T08:29:09;1.30;99.90
20418;DHT22;10368;51.436;6.774;2022-12-11T08:31:36;1.40;99.90
20418;DHT22;10368;51.436;6.774;2022-12-11T08:34:02;1.40;99.90
20418;DHT22;10368;51.436;6.774;2022-12-11T08:36:29;1.30;99.90
20418;DHT22;10368;51.436;6.774;2022-12-11T08:38:56;1.30;99.90
20418;DHT22;10368;51.436;6.774;2022-12-11T08:41:25;1.20;99.90
20418;DHT22;10368;51.436;6.774;2022-12-11T08:43:53;1.30;99.90
20418;DHT22;10368;51.436;6.774;2022-12-11T08:46:23;1.20;99.90
20418;DHT22;10368;51.436;6.774;2022-12-11T08:48:51;1.20;99.90
20418;DHT22;10368;51.436;6.774;2022-12-11T08:51:21;1.20;99.90
20418;DHT22;10368;51.436;6.774;2022-12-11T08:53:59;1.20;99.90
20418;DHT22;10368;51.436;6.774;2022-12-11T08:56:27;1.40;99.90
20418;DHT22;10368;51.436;6.774;2022-12-11T08:58:54;1.40;99.90
20418;DHT22;10368;51.436;6.774;2022-12-11T09:01:24;1.30;99.90
20418;DHT22;10368;51.436;6.774;2022-12-11T09:03:53;1.40;99.90
20418;DHT22;10368;51.436;6.774;2022-12-11T09:06:22;1.50;99.90
20418;DHT22;10368;51.436;6.774;2022-12-11T09:08:50;1.30;99.90
20418;DHT22;10368;51.436;6.774;2022-12-11T09:11:21;1.30;99.90
20418;DHT22;10368;51.436;6.774;2022-12-11T09:13:49;1.40;99.90
20418;DHT22;10368;51.436;6.774;2022-12-11T09:16:18;1.30;99.90
20418;DHT22;10368;51.436;6.774;2022-12-11T09:18:47;1.40;99.90
20418;DHT22;10368;51.436;6.774;2022-12-11T09:21:17;1.30;99.90
20418;DHT22;10368;51.436;6.774;2022-12-11T09:23:45;1.30;99.90
20418;DHT22;10368;51.436;6.774;2022-12-11T09:26:15;1.40;99.90
20418;DHT22;10368;51.436;6.774;2022-12-11T09:28:42;1.40;99.90
20418;DHT22;10368;51.436;6.774;2022-12-11T09:31:15;1.50;99.90
20418;DHT22;10368;51.436;6.774;2022-12-11T09:33:43;1.50;99.90
20418;DHT22;10368;51.436;6.774;2022-12-11T09:36:11;1.50;99.90
20418;DHT22;10368;51.436;6.774;2022-12-11T09:38:38;1.40;99.90
20418;DHT22;10368;51.436;6.774;2022-12-11T09:44:00;1.40;99.90
20418;DHT22;10368;51.436;6.774;2022-12-11T09:46:28;1.40;99.90
20418;DHT22;10368;51.436;6.774;2022-12-11T09:49:02;1.40;99.90
20418;DHT22;10368;51.436;6.774;2022-12-11T09:51:38;1.50;99.90
20418;DHT22;10368;51.436;6.774;2022-12-11T09:54:05;1.30;99.90
20418;DHT22;10368;51.436;6.774;2022-12-11T09:56:33;1.30;99.90
20418;DHT22;10368;51.436;6.774;2022-12-11T09:59:22;1.30;99.90
20418;DHT22;10368;51.436;6.774;2022-12-11T10:01:55;1.30;99.90
20418;DHT22;10368;51.436;6.774;2022-12-11T10:04:50;1.30;99.90
20418;DHT22;10368;51.436;6.774;2022-12-11T10:10:40;1.30;99.90
20418;DHT22;10368;51.436;6.774;2022-12-11T10:16:12;1.30;99.90
20418;DHT22;10368;51.436;6.774;2022-12-11T10:18:45;1.50;99.90
20418;DHT22;10368;51.436;6.774;2022-12-11T10:21:15;1.40;99.90
20418;DHT22;10368;51.436;6.774;2022-12-11T10:23:53;1.50;99.90
20418;DHT22;10368;51.436;6.774;2022-12-11T10:26:22;1.40;99.90
20418;DHT22;10368;51.436;6.774;2022-12-11T10:28:49;1.40;99.90
20418;DHT22;10368;51.436;6.774;2022-12-11T10:34:01;1.50;99.90
20418;DHT22;10368;51.436;6.774;2022-12-11T10:36:34;1.60;99.90
20418;DHT22;10368;51.436;6.774;2022-12-11T10:39:02;1.40;99.90
20418;DHT22;10368;51.436;6.774;2022-12-11T10:41:38;1.30;99.90
20418;DHT22;10368;51.436;6.774;2022-12-11T10:47:04;1.40;99.90
20418;DHT22;10368;51.436;6.774;2022-12-11T10:49:34;1.40;99.90
20418;DHT22;10368;51.436;6.774;2022-12-11T10:52:12;1.50;99.90
20418;DHT22;10368;51.436;6.774;2022-12-11T10:54:46;1.40;99.90
20418;DHT22;10368;51.436;6.774;2022-12-11T10:57:26;1.40;99.90
20418;DHT22;10368;51.436;6.774;2022-12-11T10:59:54;1.50;99.90
20418;DHT22;10368;51.436;6.774;2022-12-11T11:04:48;1.50;99.90
20418;DHT22;10368;51.436;6.774;2022-12-11T11:07:29;1.50;99.90
20418;DHT22;10368;51.436;6.774;2022-12-11T11:12:46;1.60;99.90
20418;DHT22;10368;51.436;6.774;2022-12-11T11:15:19;1.50;99.90
20418;DHT22;10368;51.436;6.774;2022-12-11T11:17:49;1.50;99.90
20418;DHT22;10368;51.436;6.774;2022-12-11T11:20:26;1.50;99.90
20418;DHT22;10368;51.436;6.774;2022-12-11T11:22:59;1.40;99.90
20418;DHT22;10368;51.436;6.774;2022-12-11T11:25:28;1.50;99.90
20418;DHT22;10368;51.436;6.774;2022-12-11T11:27:59;1.60;99.90
20418;DHT22;10368;51.436;6.774;2022-12-11T11:30:40;1.70;99.90
20418;DHT22;10368;51.436;6.774;2022-12-11T11:33:17;1.50;99.90
20418;DHT22;10368;51.436;6.774;2022-12-11T11:35:56;1.50;99.90
20418;DHT22;10368;51.436;6.774;2022-12-11T11:41:26;1.60;99.90
20418;DHT22;10368;51.436;6.774;2022-12-11T11:43:57;1.60;99.90
20418;DHT22;10368;51.436;6.774;2022-12-11T11:46:36;1.50;99.90
20418;DHT22;10368;51.436;6.774;2022-12-11T11:49:20;1.50;99.90
20418;DHT22;10368;51.436;6.774;2022-12-11T11:54:38;1.50;99.90
20418;DHT22;10368;51.436;6.774;2022-12-11T12:00:28;1.70;99.90
20418;DHT22;10368;51.436;6.774;2022-12-11T12:03:16;1.50;99.90
20418;DHT22;10368;51.436;6.774;2022-12-11T12:11:34;1.70;99.90
20418;DHT22;10368;51.436;6.774;2022-12-11T12:17:16;1.60;99.90
20418;DHT22;10368;51.436;6.774;2022-12-11T12:25:24;1.50;99.90
20418;DHT22;10368;51.436;6.774;2022-12-11T12:27:54;1.40;99.90
20418;DHT22;10368;51.436;6.774;2022-12-11T12:30:28;1.60;99.90
20418;DHT22;10368;51.436;6.774;2022-12-11T12:35:43;1.70;99.90
20418;DHT22;10368;51.436;6.774;2022-12-11T12:38:22;1.70;99.90
20418;DHT22;10368;51.436;6.774;2022-12-11T12:49:13;1.60;99.90
20418;DHT22;10368;51.436;6.774;2022-12-11T12:51:41;1.60;99.90
20418;DHT22;10368;51.436;6.774;2022-12-11T12:54:14;1.70;99.90
20418;DHT22;10368;51.436;6.774;2022-12-11T12:56:41;1.70;99.90
20418;DHT22;10368;51.436;6.774;2022-12-11T12:59:25;1.80;99.90
20418;DHT22;10368;51.436;6.774;2022-12-11T13:02:00;1.80;99.90
20418;DHT22;10368;51.436;6.774;2022-12-11T13:04:35;1.70;99.90
20418;DHT22;10368;51.436;6.774;2022-12-11T13:07:26;1.70;99.90
20418;DHT22;10368;51.436;6.774;2022-12-11T13:10:04;1.70;99.90
20418;DHT22;10368;51.436;6.774;2022-12-11T13:12:43;1.70;99.90
20418;DHT22;10368;51.436;6.774;2022-12-11T13:17:55;1.80;99.90
20418;DHT22;10368;51.436;6.774;2022-12-11T13:20:26;1.80;99.90
20418;DHT22;10368;51.436;6.774;2022-12-11T13:28:24;1.70;99.90
20418;DHT22;10368;51.436;6.774;2022-12-11T13:33:24;1.70;99.90
20418;DHT22;10368;51.436;6.774;2022-12-11T13:36:25;1.70;99.90
20418;DHT22;10368;51.436;6.774;2022-12-11T13:38:58;1.80;99.90
20418;DHT22;10368;51.436;6.774;2022-12-11T13:41:27;1.80;99.90
20418;DHT22;10368;51.436;6.774;2022-12-11T13:43:54;1.70;99.90
20418;DHT22;10368;51.436;6.774;2022-12-11T13:46:29;1.60;99.90
20418;DHT22;10368;51.436;6.774;2022-12-11T13:49:05;1.70;99.90
20418;DHT22;10368;51.436;6.774;2022-12-11T13:51:35;1.80;99.90
20418;DHT22;10368;51.436;6.774;2022-12-11T13:54:14;1.60;99.90
20418;DHT22;10368;51.436;6.774;2022-12-11T13:57:21;1.70;99.90
20418;DHT22;10368;51.436;6.774;2022-12-11T13:59:49;1.70;99.90
20418;DHT22;10368;51.436;6.774;2022-12-11T14:02:33;1.70;99.90
20418;DHT22;10368;51.436;6.774;2022-12-11T14:05:05;1.80;99.90
20418;DHT22;10368;51.436;6.774;2022-12-11T14:07:35;1.70;99.90
20418;DHT22;10368;51.436;6.774;2022-12-11T14:10:08;1.60;99.90
20418;DHT22;10368;51.436;6.774;2022-12-11T14:15:22;1.60;99.90
20418;DHT22;10368;51.436;6.774;2022-12-11T14:17:50;1.70;99.90
20418;DHT22;10368;51.436;6.774;2022-12-11T14:20:29;1.70;99.90
20418;DHT22;10368;51.436;6.774;2022-12-11T14:25:40;1.60;99.90
20418;DHT22;10368;51.436;6.774;2022-12-11T14:28:16;1.50;99.90
20418;DHT22;10368;51.436;6.774;2022-12-11T14:30:48;1.50;99.90
20418;DHT22;10368;51.436;6.774;2022-12-11T14:33:21;1.40;99.90
20418;DHT22;10368;51.436;6.774;2022-12-11T14:35:53;1.40;99.90
20418;DHT22;10368;51.436;6.774;2022-12-11T14:38:37;1.50;99.90
20418;DHT22;10368;51.436;6.774;2022-12-11T14:41:52;1.30;99.90
20418;DHT22;10368;51.436;6.774;2022-12-11T14:44:24;1.50;99.90
20418;DHT22;10368;51.436;6.774;2022-12-11T14:46:57;1.50;99.90
20418;DHT22;10368;51.436;6.774;2022-12-11T14:52:46;1.30;99.90
20418;DHT22;10368;51.436;6.774;2022-12-11T14:57:54;1.30;99.90
20418;DHT22;10368;51.436;6.774;2022-12-11T15:00:29;1.20;99.90
20418;DHT22;10368;51.436;6.774;2022-12-11T15:03:23;1.30;99.90
20418;DHT22;10368;51.436;6.774;2022-12-11T15:05:55;1.20;99.90
20418;DHT22;10368;51.436;6.774;2022-12-11T15:08:31;1.30;99.90
20418;DHT22;10368;51.436;6.774;2022-12-11T15:13:32;1.40;99.90
20418;DHT22;10368;51.436;6.774;2022-12-11T15:16:00;1.30;99.90
20418;DHT22;10368;51.436;6.774;2022-12-11T15:18:36;1.30;99.90
20418;DHT22;10368;51.436;6.774;2022-12-11T15:21:10;1.20;99.90
20418;DHT22;10368;51.436;6.774;2022-12-11T15:23:51;1.20;99.90
20418;DHT22;10368;51.436;6.774;2022-12-11T15:26:20;1.30;99.90
20418;DHT22;10368;51.436;6.774;2022-12-11T15:29:03;1.20;99.90
20418;DHT22;10368;51.436;6.774;2022-12-11T15:31:32;1.20;99.90
20418;DHT22;10368;51.436;6.774;2022-12-11T15:34:01;1.00;99.90
20418;DHT22;10368;51.436;6.774;2022-12-11T15:36:33;1.10;99.90
20418;DHT22;10368;51.436;6.774;2022-12-11T15:39:02;1.10;99.90
20418;DHT22;10368;51.436;6.774;2022-12-11T15:41:29;1.10;99.90
20418;DHT22;10368;51.436;6.774;2022-12-11T15:44:01;1.10;99.90
20418;DHT22;10368;51.436;6.774;2022-12-11T15:46:33;1.20;99.90
20418;DHT22;10368;51.436;6.774;2022-12-11T15:49:00;1.20;99.90
20418;DHT22;10368;51.436;6.774;2022-12-11T15:51:27;1.10;99.90
20418;DHT22;10368;51.436;6.774;2022-12-11T15:53:54;1.10;99.90
20418;DHT22;10368;51.436;6.774;2022-12-11T15:56:21;1.20;99.90
20418;DHT22;10368;51.436;6.774;2022-12-11T15:58:48;1.20;99.90
20418;DHT22;10368;51.436;6.774;2022-12-11T16:01:15;1.10;99.90
20418;DHT22;10368;51.436;6.774;2022-12-11T16:03:43;1.20;99.90
20418;DHT22;10368;51.436;6.774;2022-12-11T16:06:12;1.20;99.90
20418;DHT22;10368;51.436;6.774;2022-12-11T16:08:39;1.20;99.90
20418;DHT22;10368;51.436;6.774;2022-12-11T16:11:06;1.20;99.90
20418;DHT22;10368;51.436;6.774;2022-12-11T16:13:33;1.20;99.90
20418;DHT22;10368;51.436;6.774;2022-12-11T16:16:00;1.20;99.90
20418;DHT22;10368;51.436;6.774;2022-12-11T16:18:27;1.20;99.90
20418;DHT22;10368;51.436;6.774;2022-12-11T16:20:54;1.20;99.90
20418;DHT22;10368;51.436;6.774;2022-12-11T16:23:21;1.10;99.90
20418;DHT22;10368;51.436;6.774;2022-12-11T16:25:48;1.20;99.90
20418;DHT22;10368;51.436;6.774;2022-12-11T16:28:17;1.20;99.90
20418;DHT22;10368;51.436;6.774;2022-12-11T16:30:46;1.20;99.90
20418;DHT22;10368;51.436;6.774;2022-12-11T16:33:13;1.10;99.90
20418;DHT22;10368;51.436;6.774;2022-12-11T16:35:41;1.20;99.90
20418;DHT22;10368;51.436;6.774;2022-12-11T16:38:09;1.30;99.90
20418;DHT22;10368;51.436;6.774;2022-12-11T16:40:36;1.20;99.90
20418;DHT22;10368;51.436;6.774;2022-12-11T16:43:04;1.40;99.90
20418;DHT22;10368;51.436;6.774;2022-12-11T16:45:31;1.20;99.90
20418;DHT22;10368;51.436;6.774;2022-12-11T16:48:02;1.20;99.90
20418;DHT22;10368;51.436;6.774;2022-12-11T16:50:29;1.20;99.90
20418;DHT22;10368;51.436;6.774;2022-12-11T16:52:56;1.20;99.90
20418;DHT22;10368;51.436;6.774;2022-12-11T16:55:23;1.30;99.90
20418;DHT22;10368;51.436;6.774;2022-12-11T16:57:50;1.30;99.90
20418;DHT22;10368;51.436;6.774;2022-12-11T17:00:17;1.30;99.90
20418;DHT22;10368;51.436;6.774;2022-12-11T17:02:45;1.40;99.90
20418;DHT22;10368;51.436;6.774;2022-12-11T17:05:12;1.40;99.90
20418;DHT22;10368;51.436;6.774;2022-12-11T17:07:39;1.40;99.90
20418;DHT22;10368;51.436;6.774;2022-12-11T17:10:07;1.40;99.90
20418;DHT22;10368;51.436;6.774;2022-12-11T17:12:34;1.40;99.90
20418;DHT22;10368;51.436;6.774;2022-12-11T17:15:01;1.50;99.90
20418;DHT22;10368;51.436;6.774;2022-12-11T17:17:27;1.50;99.90
20418;DHT22;10368;51.436;6.774;2022-12-11T17:19:54;1.40;99.90
20418;DHT22;10368;51.436;6.774;2022-12-11T17:22:21;1.30;99.90
20418;DHT22;10368;51.436;6.774;2022-12-11T17:24:48;1.30;99.90
20418;DHT22;10368;51.436;6.774;2022-12-11T17:27:15;1.40;99.90
20418;DHT22;10368;51.436;6.774;2022-12-11T17:29:42;1.50;99.90
20418;DHT22;10368;51.436;6.774;2022-12-11T17:32:09;1.50;99.90
20418;DHT22;10368;51.436;6.774;2022-12-11T17:34:36;1.30;99.90
20418;DHT22;10368;51.436;6.774;2022-12-11T17:37:04;1.40;99.90
20418;DHT22;10368;51.436;6.774;2022-12-11T17:39:31;1.40;99.90
20418;DHT22;10368;51.436;6.774;2022-12-11T17:41:59;1.30;99.90
20418;DHT22;10368;51.436;6.774;2022-12-11T17:44:25;1.20;99.90
20418;DHT22;10368;51.436;6.774;2022-12-11T17:46:56;1.20;99.90